Time;durP1;ratioP1;P1;durP2;ratioP2;P2;SDS_P1;SDS_P2;PMS_P1;PMS_P2;Temp;Humidity;BMP_temperature;BMP_pressure;BME280_temperature;BME280_humidity;BME280_pressure;Samples;Min_cycle;Max_cycle;Signal;HPM_P1;HPM_P2
2022/08/02 00:01:43;;;;;;;5.32;2.80;;;17.90;99.90;;;;;;5049525;28;20028;-58
2022/08/02 00:04:09;;;;;;;3.17;2.85;;;17.80;99.90;;;;;;5049233;28;20033;-58
2022/08/02 00:06:36;;;;;;;3.22;2.60;;;17.80;99.90;;;;;;5048581;28;20041;-58
2022/08/02 00:09:04;;;;;;;3.25;2.90;;;17.70;99.90;;;;;;5049126;28;20492;-57
2022/08/02 00:11:30;;;;;;;3.00;2.70;;;17.70;99.90;;;;;;5048655;28;20476;-57
2022/08/02 00:13:55;;;;;;;3.00;2.70;;;17.60;99.90;;;;;;5048993;28;20052;-58
2022/08/02 00:16:21;;;;;;;3.17;2.88;;;17.60;99.90;;;;;;5049129;28;20095;-58
2022/08/02 00:18:47;;;;;;;3.95;2.90;;;17.50;99.90;;;;;;5049267;28;20124;-58
2022/08/02 00:21:12;;;;;;;3.22;2.85;;;17.50;99.90;;;;;;5048675;28;20051;-58
2022/08/02 00:23:38;;;;;;;3.08;2.83;;;17.50;99.90;;;;;;5048685;28;20025;-57
2022/08/02 00:26:04;;;;;;;9.70;2.92;;;17.40;99.90;;;;;;5047379;28;20021;-58
2022/08/02 00:28:29;;;;;;;3.47;3.17;;;17.30;99.90;;;;;;5048068;28;20485;-58
2022/08/02 00:30:58;;;;;;;2.65;2.45;;;17.30;99.90;;;;;;5048689;28;20025;-57
2022/08/02 00:33:25;;;;;;;3.35;3.05;;;17.30;99.90;;;;;;5048684;28;20036;-57
2022/08/02 00:35:50;;;;;;;3.00;2.63;;;17.30;99.90;;;;;;5047355;28;20029;-59
2022/08/02 00:38:16;;;;;;;2.83;2.55;;;17.30;99.90;;;;;;5047892;28;20033;-59
2022/08/02 00:40:49;;;;;;;3.30;2.72;;;17.30;99.90;;;;;;5049381;28;20096;-58
2022/08/02 00:43:15;;;;;;;2.63;2.42;;;17.20;99.90;;;;;;5047536;28;20045;-58
2022/08/02 00:45:41;;;;;;;3.33;2.67;;;17.20;99.90;;;;;;5048729;28;20370;-58
2022/08/02 00:48:09;;;;;;;3.05;2.75;;;17.10;99.90;;;;;;5048103;28;20021;-57
2022/08/02 00:50:36;;;;;;;3.10;2.80;;;17.10;99.90;;;;;;5048395;28;20496;-58
2022/08/02 00:53:02;;;;;;;3.95;3.22;;;17.10;99.90;;;;;;5048514;28;20412;-57
2022/08/02 00:55:29;;;;;;;2.97;2.78;;;17.00;99.90;;;;;;5048528;28;20032;-57
2022/08/02 00:57:54;;;;;;;2.97;2.78;;;17.00;99.90;;;;;;5050143;28;20068;-58
2022/08/02 01:00:21;;;;;;;3.58;2.65;;;16.90;99.90;;;;;;5052141;28;20060;-57
2022/08/02 01:02:46;;;;;;;3.28;2.97;;;16.90;99.90;;;;;;5052881;28;20108;-58
2022/08/02 01:05:13;;;;;;;3.40;3.13;;;16.90;99.90;;;;;;5052342;28;20441;-57
2022/08/02 01:07:38;;;;;;;3.22;3.00;;;16.80;99.90;;;;;;5052809;28;20115;-57
2022/08/02 01:10:05;;;;;;;3.65;2.33;;;16.80;99.90;;;;;;5051751;28;20112;-57
2022/08/02 01:12:30;;;;;;;3.67;2.67;;;16.80;99.90;;;;;;5052626;28;20025;-58
2022/08/02 01:15:00;;;;;;;3.00;2.80;;;16.80;99.90;;;;;;5052158;28;20528;-58
2022/08/02 01:17:45;;;;;;;3.20;2.90;;;16.80;99.90;;;;;;5052117;28;20492;-57
2022/08/02 01:20:29;;;;;;;3.42;3.13;;;16.80;99.90;;;;;;5050972;28;20029;-59
2022/08/02 01:23:13;;;;;;;3.20;2.90;;;16.80;99.90;;;;;;5051716;28;20060;-57
2022/08/02 01:25:57;;;;;;;5.20;3.30;;;16.70;99.90;;;;;;5051812;28;20028;-57
2022/08/02 01:28:52;;;;;;;5.13;3.65;;;16.70;99.90;;;;;;5052541;28;20116;-58
2022/08/02 01:31:43;;;;;;;3.78;3.47;;;16.70;99.90;;;;;;5047177;28;20086;-58
2022/08/02 01:34:14;;;;;;;4.20;3.80;;;16.60;99.90;;;;;;5051884;28;20492;-57
2022/08/02 01:36:44;;;;;;;3.80;3.30;;;16.60;99.90;;;;;;5050086;28;20396;-57
2022/08/02 01:39:14;;;;;;;4.43;3.28;;;16.60;99.90;;;;;;5053556;28;20048;-57
2022/08/02 01:41:41;;;;;;;4.25;3.63;;;16.50;99.90;;;;;;5051252;28;20060;-58
2022/08/02 01:44:12;;;;;;;4.10;3.30;;;16.50;99.90;;;;;;5051695;28;20033;-58
2022/08/02 01:46:40;;;;;;;3.50;3.20;;;16.50;99.90;;;;;;5051972;28;20021;-56
2022/08/02 01:49:12;;;;;;;3.80;3.50;;;16.40;99.90;;;;;;5050361;28;20025;-57
2022/08/02 01:54:28;;;;;;;4.55;4.15;;;16.40;99.90;;;;;;5051137;28;20033;-58
2022/08/02 01:56:56;;;;;;;3.97;3.67;;;16.40;99.90;;;;;;5051163;28;20484;-58
2022/08/02 01:59:24;;;;;;;4.63;3.78;;;16.30;99.90;;;;;;5050029;28;20040;-57
2022/08/02 02:01:52;;;;;;;4.25;3.95;;;16.30;99.90;;;;;;5050867;28;20485;-58
2022/08/02 02:04:20;;;;;;;4.28;3.88;;;16.30;99.90;;;;;;5051148;28;20031;-57
2022/08/02 02:06:50;;;;;;;5.75;4.43;;;16.30;99.90;;;;;;5049974;28;20029;-57
2022/08/02 02:09:17;;;;;;;4.03;3.72;;;16.20;99.90;;;;;;5050522;28;20029;-58
2022/08/02 02:11:44;;;;;;;4.68;4.28;;;16.20;99.90;;;;;;5051138;28;20064;-58
2022/08/02 02:14:12;;;;;;;4.85;4.25;;;16.20;99.90;;;;;;5050435;28;20455;-58
2022/08/02 02:16:43;;;;;;;4.05;3.60;;;16.10;99.90;;;;;;5051379;28;20020;-57
2022/08/02 02:19:11;;;;;;;3.55;3.35;;;16.10;99.90;;;;;;5050906;28;20076;-58
2022/08/02 02:21:37;;;;;;;4.00;3.67;;;16.10;99.90;;;;;;5051417;28;20017;-58
2022/08/02 02:24:03;;;;;;;4.13;3.72;;;16.00;99.90;;;;;;5051318;28;20033;-58
2022/08/02 02:26:30;;;;;;;8.60;3.67;;;16.00;99.90;;;;;;5050735;28;20080;-57
2022/08/02 02:29:00;;;;;;;3.72;3.42;;;16.00;99.90;;;;;;5050890;28;20025;-58
2022/08/02 02:31:28;;;;;;;3.83;3.53;;;16.00;99.90;;;;;;5050670;28;20055;-57
2022/08/02 02:34:00;;;;;;;4.53;3.75;;;16.00;99.90;;;;;;5051005;28;20492;-58
2022/08/02 02:36:28;;;;;;;3.67;3.38;;;16.00;99.90;;;;;;5050427;28;20033;-58
2022/08/02 02:39:01;;;;;;;4.22;3.65;;;16.00;99.90;;;;;;5050111;28;20021;-58
2022/08/02 02:41:30;;;;;;;4.78;3.60;;;16.00;99.90;;;;;;5049005;28;20116;-59
2022/08/02 02:44:00;;;;;;;7.32;4.15;;;16.10;99.90;;;;;;5050445;28;20036;-57
2022/08/02 02:46:28;;;;;;;4.78;3.92;;;16.00;99.90;;;;;;5050302;28;20116;-58
2022/08/02 02:48:54;;;;;;;3.10;2.80;;;16.10;99.90;;;;;;5050594;28;20116;-57
2022/08/02 02:51:21;;;;;;;3.85;3.45;;;16.10;99.90;;;;;;5050253;28;20029;-58
2022/08/02 02:53:49;;;;;;;4.20;3.70;;;16.10;99.90;;;;;;5050719;28;20120;-57
2022/08/02 02:56:16;;;;;;;3.42;3.20;;;16.10;99.90;;;;;;5050087;28;20076;-57
2022/08/02 02:58:43;;;;;;;3.70;3.50;;;16.10;99.90;;;;;;5050578;28;20400;-58
2022/08/02 03:01:29;;;;;;;4.30;3.35;;;16.10;99.90;;;;;;5050503;28;20035;-57
2022/08/02 03:03:58;;;;;;;3.75;3.33;;;16.10;99.90;;;;;;5048942;28;20132;-57
2022/08/02 03:06:24;;;;;;;4.57;4.18;;;16.00;99.90;;;;;;5050160;28;20045;-58
2022/08/02 03:08:50;;;;;;;4.70;4.40;;;15.80;99.90;;;;;;5049652;28;20150;-57
2022/08/02 03:11:17;;;;;;;4.15;3.85;;;15.80;99.90;;;;;;5051402;28;20099;-57
2022/08/02 03:13:43;;;;;;;4.38;4.07;;;15.70;99.90;;;;;;5050074;28;20658;-58
2022/08/02 03:16:10;;;;;;;4.90;4.50;;;15.60;99.90;;;;;;5050309;28;20043;-59
2022/08/02 03:18:38;;;;;;;4.72;4.32;;;15.50;99.90;;;;;;5048971;28;20083;-60
2022/08/02 03:21:12;;;;;;;5.50;4.43;;;15.50;99.90;;;;;;5048280;28;20029;-60
2022/08/02 03:23:40;;;;;;;4.65;4.28;;;15.40;99.90;;;;;;5049049;28;20033;-60
2022/08/02 03:26:07;;;;;;;4.35;3.95;;;15.40;99.90;;;;;;5047867;28;20114;-60
2022/08/02 03:28:33;;;;;;;4.57;4.28;;;15.30;99.90;;;;;;5049984;28;20103;-59
2022/08/02 03:30:59;;;;;;;5.13;4.72;;;15.30;99.90;;;;;;5049247;28;20128;-59
2022/08/02 03:33:26;;;;;;;5.40;5.00;;;15.20;99.90;;;;;;5049821;28;20040;-59
2022/08/02 03:35:57;;;;;;;5.30;4.95;;;15.20;99.90;;;;;;5049094;28;20366;-59
2022/08/02 03:38:24;;;;;;;;;;;15.20;99.90;;;;;;5049624;28;20420;-60
2022/08/02 03:40:50;;;;;;;4.85;4.35;;;15.20;99.90;;;;;;5048771;28;19995;-58
2022/08/02 03:43:16;;;;;;;5.00;4.60;;;15.10;99.90;;;;;;5042015;28;20468;-60
2022/08/02 03:45:45;;;;;;;4.55;4.22;;;15.10;99.90;;;;;;5048087;28;20033;-59
2022/08/02 03:48:13;;;;;;;5.35;4.95;;;15.10;99.90;;;;;;5049211;28;20091;-57
2022/08/02 03:50:40;;;;;;;4.30;3.90;;;15.10;99.90;;;;;;5048536;28;20041;-58
2022/08/02 03:53:06;;;;;;;5.20;4.78;;;15.10;99.90;;;;;;5049615;28;20124;-57
2022/08/02 03:55:33;;;;;;;5.68;5.20;;;15.10;99.90;;;;;;5049671;28;20079;-57
2022/08/02 03:57:59;;;;;;;4.57;4.18;;;15.10;99.90;;;;;;5030886;28;20055;-58
2022/08/02 04:00:25;;;;;;;5.10;4.70;;;15.20;99.90;;;;;;5049611;28;20125;-59
2022/08/02 04:02:51;;;;;;;5.75;5.35;;;15.20;99.90;;;;;;5047272;28;20551;-60
2022/08/02 04:05:17;;;;;;;5.45;5.05;;;15.20;99.90;;;;;;5048804;28;20140;-59
2022/08/02 04:07:43;;;;;;;4.88;4.47;;;15.20;99.90;;;;;;5046830;28;20401;-60
2022/08/02 04:10:10;;;;;;;5.35;4.75;;;15.30;99.90;;;;;;5046866;28;20056;-60
2022/08/02 04:12:36;;;;;;;4.47;4.18;;;15.30;99.90;;;;;;5049863;28;20507;-60
2022/08/02 04:15:03;;;;;;;4.72;4.32;;;15.40;99.90;;;;;;5049432;28;20233;-60
2022/08/02 04:17:32;;;;;;;5.07;4.68;;;15.40;99.90;;;;;;5048592;28;20025;-59
2022/08/02 04:20:04;;;;;;;4.38;4.07;;;15.50;99.90;;;;;;5047798;28;20554;-60
2022/08/02 04:22:45;;;;;;;4.55;4.13;;;15.60;99.90;;;;;;5049477;28;20032;-57
2022/08/02 04:25:12;;;;;;;3.92;3.63;;;15.70;99.90;;;;;;5047441;28;20043;-58
2022/08/02 04:27:39;;;;;;;4.90;4.45;;;15.80;99.90;;;;;;5047966;28;20029;-57
2022/08/02 04:30:06;;;;;;;5.22;4.82;;;15.90;99.90;;;;;;5047957;28;20562;-56
2022/08/02 04:32:32;;;;;;;4.57;4.18;;;16.00;99.90;;;;;;5048762;28;20508;-58
2022/08/02 04:34:58;;;;;;;4.70;3.70;;;16.10;99.90;;;;;;5048397;28;20021;-57
2022/08/02 04:37:25;;;;;;;4.57;3.55;;;16.10;99.90;;;;;;5048921;28;20024;-58
2022/08/02 04:39:51;;;;;;;4.13;3.72;;;16.20;99.90;;;;;;5047853;28;20598;-59
2022/08/02 04:42:21;;;;;;;3.80;3.50;;;16.20;99.90;;;;;;5048535;28;20029;-57
2022/08/02 04:44:47;;;;;;;4.30;3.55;;;16.30;99.90;;;;;;5047424;28;20121;-58
2022/08/02 04:47:13;;;;;;;4.22;3.67;;;16.40;99.90;;;;;;5048399;28;20111;-57
2022/08/02 04:49:39;;;;;;;4.95;3.50;;;16.50;99.90;;;;;;5048862;28;20477;-57
2022/08/02 04:52:05;;;;;;;4.15;3.72;;;16.60;99.90;;;;;;5048025;28;20022;-58
2022/08/02 04:54:30;;;;;;;3.40;3.10;;;16.80;99.90;;;;;;5048885;28;20029;-58
2022/08/02 04:56:56;;;;;;;3.00;2.75;;;16.90;99.90;;;;;;5047820;28;20067;-60
2022/08/02 04:59:22;;;;;;;3.50;3.00;;;17.00;99.90;;;;;;5048551;28;20040;-58
2022/08/02 05:01:47;;;;;;;3.95;3.08;;;17.10;99.90;;;;;;5047817;28;20405;-59
2022/08/02 05:04:13;;;;;;;2.95;2.75;;;17.10;99.90;;;;;;5047491;28;20480;-57
2022/08/02 05:06:38;;;;;;;6.78;3.35;;;17.20;99.90;;;;;;5047853;28;20032;-58
2022/08/02 05:09:04;;;;;;;4.60;2.92;;;17.30;99.90;;;;;;5046299;28;20048;-58
2022/08/02 05:11:30;;;;;;;3.65;3.35;;;17.40;99.90;;;;;;5047768;28;20033;-57
2022/08/02 05:13:56;;;;;;;3.65;2.80;;;17.70;99.90;;;;;;5047524;28;20469;-58
2022/08/02 05:16:21;;;;;;;3.50;2.78;;;18.00;99.90;;;;;;5048760;28;20104;-58
2022/08/02 05:18:47;;;;;;;2.83;2.30;;;18.70;99.90;;;;;;5047919;28;20032;-58
2022/08/02 05:21:13;;;;;;;3.00;2.22;;;19.70;99.90;;;;;;5048581;28;20034;-58
2022/08/02 05:23:39;;;;;;;2.75;2.20;;;20.70;99.90;;;;;;5047967;28;20032;-59
2022/08/02 05:26:04;;;;;;;2.35;2.15;;;21.80;99.90;;;;;;5047791;28;20406;-58
2022/08/02 05:28:30;;;;;;;2.50;2.08;;;22.80;99.90;;;;;;5047719;28;20017;-58
2022/08/02 05:30:56;;;;;;;5.38;2.10;;;23.40;99.90;;;;;;5047618;28;20052;-59
2022/08/02 05:33:21;;;;;;;2.78;2.28;;;24.00;99.90;;;;;;5047774;28;20025;-59
2022/08/02 05:35:47;;;;;;;1.70;1.60;;;24.60;99.90;;;;;;5048141;28;20025;-59
2022/08/02 05:38:12;;;;;;;2.10;1.90;;;25.30;99.90;;;;;;5048070;28;20037;-59
2022/08/02 05:40:38;;;;;;;1.98;1.73;;;25.90;99.90;;;;;;5048255;28;20029;-57
2022/08/02 05:43:14;;;;;;;3.75;2.35;;;26.40;99.90;;;;;;5048232;28;20028;-58
2022/08/02 05:45:40;;;;;;;4.63;2.15;;;27.00;99.90;;;;;;5050445;28;20072;-59
2022/08/02 05:48:06;;;;;;;3.08;1.80;;;27.00;94.20;;;;;;5051853;28;20485;-58
2022/08/02 05:50:38;;;;;;;5.75;2.30;;;26.90;97.90;;;;;;5050815;28;20046;-58
2022/08/02 05:53:10;;;;;;;5.55;2.33;;;26.90;94.80;;;;;;5051990;28;20025;-58
2022/08/02 05:55:46;;;;;;;5.13;2.33;;;27.00;98.10;;;;;;5050976;28;20020;-58
2022/08/02 05:58:40;;;;;;;4.45;1.90;;;27.30;92.90;;;;;;5051018;28;20049;-58
2022/08/02 06:01:08;;;;;;;1.90;1.80;;;27.80;89.40;;;;;;5049984;28;20083;-58
2022/08/02 06:03:48;;;;;;;4.05;2.42;;;28.10;83.10;;;;;;5050940;28;20045;-58
2022/08/02 06:06:16;;;;;;;3.22;2.15;;;28.20;82.60;;;;;;5051417;28;20567;-58
2022/08/02 06:08:45;;;;;;;3.53;1.92;;;28.30;77.60;;;;;;5052220;28;20029;-58
2022/08/02 06:11:14;;;;;;;1.60;1.50;;;28.80;78.10;;;;;;5050586;28;20041;-58
2022/08/02 06:13:44;;;;;;;1.50;1.40;;;29.40;73.40;;;;;;5050772;28;20013;-58
2022/08/02 06:16:10;;;;;;;1.48;1.30;;;30.00;65.90;;;;;;5051237;28;20025;-58
2022/08/02 06:18:37;;;;;;;1.67;1.30;;;30.60;62.90;;;;;;5050331;28;20056;-59
2022/08/02 06:21:04;;;;;;;2.05;1.35;;;30.90;60.20;;;;;;5050931;28;20059;-58
2022/08/02 06:23:31;;;;;;;2.17;1.60;;;31.60;57.90;;;;;;5050205;28;20515;-58
2022/08/02 06:25:58;;;;;;;1.98;1.73;;;31.70;57.90;;;;;;5050556;28;20029;-57
2022/08/02 06:28:25;;;;;;;2.42;1.60;;;31.60;57.60;;;;;;5051663;28;20424;-58
2022/08/02 06:30:51;;;;;;;3.22;1.50;;;31.50;58.80;;;;;;5065169;28;20485;-58
2022/08/02 06:33:17;;;;;;;2.58;1.90;;;31.50;58.10;;;;;;5049019;28;20108;-57
2022/08/02 06:36:08;;;;;;;3.42;1.75;;;31.30;58.00;;;;;;5049757;28;20104;-59
2022/08/02 06:38:43;;;;;;;1.63;1.48;;;31.30;58.40;;;;;;5048749;28;20476;-58
2022/08/02 06:41:14;;;;;;;1.73;1.55;;;31.50;57.50;;;;;;5048522;28;20497;-58
2022/08/02 06:43:58;;;;;;;1.83;1.40;;;31.60;57.10;;;;;;5050903;28;20035;-57
2022/08/02 06:46:24;;;;;;;1.75;1.65;;;31.70;57.50;;;;;;5048115;28;20041;-59
2022/08/02 06:48:50;;;;;;;3.88;1.40;;;32.00;56.70;;;;;;5049163;28;20033;-57
2022/08/02 06:51:16;;;;;;;2.42;1.30;;;32.10;57.10;;;;;;5049005;28;20051;-58
2022/08/02 06:53:42;;;;;;;2.83;1.45;;;32.50;55.90;;;;;;5031326;28;20043;-57
2022/08/02 06:56:08;;;;;;;3.22;1.40;;;32.90;55.30;;;;;;5047163;28;20036;-57
2022/08/02 06:58:34;;;;;;;1.73;1.40;;;33.60;54.40;;;;;;5049429;28;20024;-58
2022/08/02 07:01:00;;;;;;;2.53;1.23;;;33.80;53.00;;;;;;5049652;28;20021;-57
2022/08/02 07:03:26;;;;;;;2.95;1.45;;;34.30;51.90;;;;;;5049520;28;20087;-58
2022/08/02 07:05:52;;;;;;;2.30;1.30;;;34.00;51.60;;;;;;5047224;28;20041;-57
2022/08/02 07:08:19;;;;;;;1.45;1.15;;;34.60;51.00;;;;;;5048048;28;20053;-58
2022/08/02 07:10:45;;;;;;;1.42;1.08;;;35.40;50.50;;;;;;5047769;28;20453;-58
2022/08/02 07:13:11;;;;;;;1.25;1.13;;;36.10;49.40;;;;;;5044677;28;20127;-58
2022/08/02 07:15:37;;;;;;;1.52;0.90;;;36.40;48.90;;;;;;5049312;28;20035;-58
2022/08/02 07:18:04;;;;;;;1.35;0.90;;;36.50;47.90;;;;;;5049551;28;20044;-59
2022/08/02 07:20:30;;;;;;;1.17;0.95;;;36.30;47.40;;;;;;5049673;28;20048;-59
2022/08/02 07:22:56;;;;;;;1.95;1.10;;;36.10;47.40;;;;;;5048921;28;20461;-59
2022/08/02 07:25:21;;;;;;;2.42;1.00;;;36.60;47.20;;;;;;5050175;28;20029;-58
2022/08/02 07:27:47;;;;;;;2.25;0.90;;;36.60;47.20;;;;;;5048945;28;20086;-58
2022/08/02 07:30:13;;;;;;;0.85;0.82;;;37.30;45.90;;;;;;5049508;28;20394;-58
2022/08/02 07:32:38;;;;;;;1.05;0.90;;;38.10;45.20;;;;;;5049102;28;20031;-57
2022/08/02 07:35:05;;;;;;;1.65;1.00;;;38.80;43.80;;;;;;5049759;28;20021;-59
2022/08/02 07:37:32;;;;;;;1.23;1.00;;;39.40;43.10;;;;;;5048323;28;20032;-58
2022/08/02 07:39:58;;;;;;;2.17;0.75;;;38.90;43.30;;;;;;5064104;28;20025;-59
2022/08/02 07:42:24;;;;;;;1.83;1.10;;;39.60;43.00;;;;;;5049551;28;20172;-59
2022/08/02 07:44:50;;;;;;;0.82;0.82;;;39.90;41.80;;;;;;5048311;28;20056;-58
2022/08/02 07:47:16;;;;;;;1.38;0.60;;;39.90;41.90;;;;;;5048991;28;20037;-58
2022/08/02 07:49:42;;;;;;;0.93;0.80;;;39.90;41.50;;;;;;5049485;28;20495;-59
2022/08/02 07:52:07;;;;;;;1.00;0.90;;;39.20;41.10;;;;;;5047763;28;20049;-58
2022/08/02 07:54:33;;;;;;;3.88;1.00;;;37.90;42.80;;;;;;5047261;28;20043;-58
2022/08/02 07:56:59;;;;;;;3.72;0.82;;;37.30;45.00;;;;;;5048822;28;20033;-58
2022/08/02 07:59:26;;;;;;;0.80;0.80;;;37.50;45.70;;;;;;5049930;28;20032;-58
2022/08/02 08:01:52;;;;;;;2.83;0.90;;;37.90;44.50;;;;;;5031948;28;20021;-58
2022/08/02 08:04:18;;;;;;;1.35;0.73;;;38.00;43.10;;;;;;5049695;28;20100;-63
2022/08/02 08:06:48;;;;;;;0.73;0.73;;;38.20;42.80;;;;;;5048250;28;20021;-60
2022/08/02 08:09:13;;;;;;;2.15;0.85;;;39.00;42.60;;;;;;5030224;28;20048;-63
2022/08/02 08:11:42;;;;;;;3.08;0.82;;;40.00;41.60;;;;;;5049276;28;20440;-60
2022/08/02 08:14:08;;;;;;;3.10;0.73;;;39.90;41.30;;;;;;5047927;28;20380;-61
2022/08/02 08:16:34;;;;;;;0.93;0.90;;;39.60;40.70;;;;;;5049388;28;20024;-59
2022/08/02 08:19:01;;;;;;;1.15;1.05;;;39.20;41.50;;;;;;5048304;28;20048;-59
2022/08/02 08:21:29;;;;;;;2.00;0.95;;;39.50;41.70;;;;;;5047150;28;20558;-59
2022/08/02 08:23:55;;;;;;;2.85;0.80;;;39.60;42.10;;;;;;5047896;28;20099;-59
2022/08/02 08:26:21;;;;;;;1.75;0.80;;;39.60;42.60;;;;;;5046862;28;20025;-59
2022/08/02 08:28:47;;;;;;;1.73;0.90;;;39.40;41.70;;;;;;5048527;28;20511;-60
2022/08/02 08:31:13;;;;;;;0.80;0.80;;;39.50;42.00;;;;;;5048002;28;20057;-62
2022/08/02 08:33:38;;;;;;;1.92;0.80;;;39.10;42.40;;;;;;5048099;28;20642;-62
2022/08/02 08:36:05;;;;;;;0.80;0.80;;;39.50;42.00;;;;;;5047434;28;20029;-63
2022/08/02 08:38:30;;;;;;;2.78;1.00;;;39.30;42.50;;;;;;5047173;28;20476;-63
2022/08/02 08:40:56;;;;;;;2.10;1.00;;;39.70;42.30;;;;;;5047720;28;20032;-59
2022/08/02 08:43:22;;;;;;;7.25;0.80;;;40.10;41.60;;;;;;5030425;28;20909;-60
2022/08/02 08:45:49;;;;;;;0.82;0.70;;;40.30;41.30;;;;;;5047871;28;20024;-60
2022/08/02 08:48:16;;;;;;;1.60;0.90;;;40.40;40.40;;;;;;5047456;28;20397;-59
2022/08/02 08:51:06;;;;;;;2.25;0.95;;;40.70;40.50;;;;;;5046403;28;20566;-60
2022/08/02 08:53:38;;;;;;;0.80;0.80;;;40.80;40.00;;;;;;5047938;28;20065;-63
2022/08/02 08:56:05;;;;;;;1.42;0.80;;;40.70;40.00;;;;;;5029910;28;20130;-59
2022/08/02 08:58:30;;;;;;;2.10;0.90;;;40.60;40.70;;;;;;5048265;28;20028;-59
2022/08/02 09:00:56;;;;;;;1.25;1.10;;;40.90;40.00;;;;;;5046911;28;20025;-60
2022/08/02 09:03:22;;;;;;;1.05;0.95;;;41.40;39.70;;;;;;5047987;28;20064;-59
2022/08/02 09:05:48;;;;;;;1.30;1.20;;;41.30;38.70;;;;;;5047264;28;20388;-59
2022/08/02 09:08:13;;;;;;;2.25;1.00;;;41.20;38.00;;;;;;5048234;28;20489;-60
2022/08/02 09:10:40;;;;;;;1.88;1.02;;;40.80;38.40;;;;;;5048678;28;20021;-63
2022/08/02 09:13:21;;;;;;;1.95;1.33;;;40.10;40.20;;;;;;5046959;28;20052;-59
2022/08/02 09:16:02;;;;;;;1.23;1.00;;;39.50;41.50;;;;;;5047056;28;20033;-62
2022/08/02 09:18:36;;;;;;;1.30;1.20;;;39.20;40.10;;;;;;5046709;28;20033;-59
2022/08/02 09:21:04;;;;;;;2.17;1.10;;;38.30;40.90;;;;;;5052265;28;20389;-62
2022/08/02 09:23:40;;;;;;;1.85;1.00;;;38.50;41.50;;;;;;5051737;28;20041;-62
2022/08/02 09:26:24;;;;;;;2.78;1.20;;;39.30;40.70;;;;;;5050032;28;20021;-61
2022/08/02 09:28:57;;;;;;;2.45;1.30;;;39.20;40.50;;;;;;5051644;28;20025;-61
2022/08/02 09:31:23;;;;;;;1.75;1.30;;;39.10;41.50;;;;;;5044584;28;20103;-59
2022/08/02 09:33:59;;;;;;;1.35;1.20;;;39.70;40.50;;;;;;5051415;28;20160;-59
2022/08/02 09:36:35;;;;;;;1.10;1.00;;;40.00;39.70;;;;;;5065389;28;20168;-59
2022/08/02 09:39:04;;;;;;;1.88;1.17;;;40.60;39.30;;;;;;5051801;28;20030;-61
2022/08/02 09:41:32;;;;;;;1.45;1.20;;;40.10;39.30;;;;;;5051283;28;20063;-62
2022/08/02 09:44:01;;;;;;;1.77;1.20;;;38.40;41.10;;;;;;5051714;28;20028;-61
2022/08/02 09:46:29;;;;;;;1.20;1.10;;;37.30;41.70;;;;;;5051911;28;20036;-61
2022/08/02 09:49:12;;;;;;;1.80;1.20;;;36.90;42.50;;;;;;5049881;28;20025;-61
2022/08/02 09:52:00;;;;;;;2.10;1.35;;;37.40;43.90;;;;;;5049751;28;20029;-62
2022/08/02 09:54:27;;;;;;;2.10;1.15;;;38.00;42.60;;;;;;5050136;28;20029;-60
2022/08/02 09:56:59;;;;;;;1.38;1.00;;;38.20;42.50;;;;;;5051211;28;20040;-60
2022/08/02 09:59:26;;;;;;;1.17;1.10;;;38.80;42.40;;;;;;5050667;28;20053;-60
2022/08/02 10:01:53;;;;;;;1.95;1.20;;;38.80;40.60;;;;;;5051054;28;20513;-60
2022/08/02 10:04:21;;;;;;;1.58;1.00;;;38.80;40.60;;;;;;5051485;28;20036;-60
2022/08/02 10:06:48;;;;;;;4.35;1.30;;;39.10;40.90;;;;;;5051277;28;20047;-60
2022/08/02 10:09:15;;;;;;;2.63;1.00;;;39.70;40.30;;;;;;5049777;28;20037;-59
2022/08/02 10:11:41;;;;;;;2.85;1.15;;;40.00;40.40;;;;;;5046842;28;20421;-64
2022/08/02 10:14:09;;;;;;;1.48;1.10;;;40.10;39.70;;;;;;5047664;28;20037;-64
2022/08/02 10:16:37;;;;;;;5.47;1.00;;;40.00;39.60;;;;;;5050425;28;20027;-62
2022/08/02 10:19:03;;;;;;;2.00;1.17;;;39.90;39.30;;;;;;5050517;28;20021;-60
2022/08/02 10:21:39;;;;;;;1.70;0.98;;;39.10;40.10;;;;;;5049075;28;20044;-61
2022/08/02 10:24:17;;;;;;;1.15;1.10;;;37.90;41.70;;;;;;5049283;28;20033;-59
2022/08/02 10:26:44;;;;;;;3.45;1.30;;;36.60;43.80;;;;;;5049995;28;20024;-59
2022/08/02 10:29:15;;;;;;;2.15;1.40;;;34.90;46.90;;;;;;5049690;28;20049;-61
2022/08/02 10:31:43;;;;;;;3.65;1.33;;;33.90;48.70;;;;;;5050233;28;20075;-62
2022/08/02 10:34:16;;;;;;;3.97;1.40;;;33.00;50.50;;;;;;5049452;28;20025;-59
2022/08/02 10:36:43;;;;;;;1.48;1.35;;;32.10;52.70;;;;;;5050262;28;20033;-61
2022/08/02 10:39:10;;;;;;;3.08;1.20;;;31.70;53.10;;;;;;5049934;28;20028;-62
2022/08/02 10:41:39;;;;;;;1.88;1.48;;;31.70;53.50;;;;;;5050895;28;20076;-59
2022/08/02 10:44:05;;;;;;;1.50;1.40;;;31.80;53.30;;;;;;5048790;28;20021;-59
2022/08/02 10:46:35;;;;;;;2.55;1.63;;;32.00;52.40;;;;;;5051046;28;20066;-59
2022/08/02 10:49:01;;;;;;;;;;;32.20;53.10;;;;;;5051248;28;20377;-59
2022/08/02 10:51:51;;;;;;;2.78;1.40;;;33.20;52.00;;;;;;5049590;28;19912;-61
2022/08/02 10:54:19;;;;;;;1.55;1.45;;;34.20;49.70;;;;;;5049240;28;20032;-59
2022/08/02 10:56:46;;;;;;;1.70;1.25;;;35.20;47.60;;;;;;5049485;28;20397;-59
2022/08/02 10:59:25;;;;;;;1.55;1.27;;;35.80;46.50;;;;;;5049728;28;20072;-61
2022/08/02 11:01:52;;;;;;;1.48;1.17;;;36.60;45.90;;;;;;5048818;28;20017;-59
2022/08/02 11:04:17;;;;;;;2.95;1.35;;;36.90;44.10;;;;;;5050444;28;20381;-59
2022/08/02 11:07:06;;;;;;;3.20;1.20;;;37.30;44.30;;;;;;5049417;28;20051;-59
2022/08/02 11:09:31;;;;;;;2.40;1.20;;;37.40;43.50;;;;;;5048709;28;20071;-60
2022/08/02 11:12:02;;;;;;;3.60;1.30;;;36.90;42.90;;;;;;5049479;28;20018;-61
2022/08/02 11:14:28;;;;;;;2.55;1.20;;;36.00;43.30;;;;;;5049291;28;20040;-59
2022/08/02 11:16:54;;;;;;;2.35;1.20;;;35.90;44.60;;;;;;5049725;28;20108;-59
2022/08/02 11:19:20;;;;;;;1.17;1.08;;;35.70;45.20;;;;;;5050344;28;20021;-60
2022/08/02 11:22:02;;;;;;;1.20;1.10;;;35.60;44.90;;;;;;5050060;28;20033;-59
2022/08/02 11:24:32;;;;;;;1.27;1.17;;;35.50;45.00;;;;;;5047293;28;20031;-63
2022/08/02 11:26:59;;;;;;;2.45;1.45;;;35.50;45.00;;;;;;5049430;28;20029;-60
2022/08/02 11:29:51;;;;;;;1.30;1.20;;;35.40;44.30;;;;;;5049130;28;20029;-59
2022/08/02 11:32:23;;;;;;;1.10;1.00;;;35.20;44.50;;;;;;5047409;28;20029;-60
2022/08/02 11:34:52;;;;;;;1.92;1.15;;;35.40;45.00;;;;;;5049479;28;20025;-59
2022/08/02 11:37:37;;;;;;;1.42;0.90;;;36.00;44.10;;;;;;5049237;28;20384;-59
2022/08/02 11:40:05;;;;;;;3.38;1.15;;;36.40;43.40;;;;;;5048778;28;20064;-63
2022/08/02 11:42:37;;;;;;;3.67;1.10;;;36.60;42.90;;;;;;5050370;28;20124;-61
2022/08/02 11:45:08;;;;;;;1.10;1.00;;;36.80;42.70;;;;;;5048870;28;20083;-61
2022/08/02 11:47:44;;;;;;;1.30;1.20;;;36.50;42.10;;;;;;5048978;28;20063;-59
2022/08/02 11:50:10;;;;;;;1.75;0.98;;;36.00;42.10;;;;;;5049226;28;20493;-62
2022/08/02 11:52:37;;;;;;;1.30;1.10;;;35.90;42.90;;;;;;5048400;28;20032;-59
2022/08/02 11:55:05;;;;;;;2.72;1.20;;;35.90;43.10;;;;;;5049153;28;20553;-60
2022/08/02 11:57:31;;;;;;;1.17;1.08;;;35.80;43.10;;;;;;5048530;28;20065;-60
2022/08/02 11:59:57;;;;;;;1.50;1.30;;;35.60;42.10;;;;;;5049305;28;20045;-59
2022/08/02 12:02:27;;;;;;;2.05;1.40;;;35.40;42.40;;;;;;5048436;28;20033;-59
2022/08/02 12:04:58;;;;;;;2.20;1.08;;;35.10;42.00;;;;;;5049395;28;20135;-59
2022/08/02 12:07:36;;;;;;;1.20;0.93;;;34.80;43.30;;;;;;5047420;28;20193;-61
2022/08/02 12:10:11;;;;;;;2.63;1.10;;;34.70;43.60;;;;;;5048977;28;20033;-62
2022/08/02 12:12:55;;;;;;;1.63;0.90;;;34.60;44.00;;;;;;5048573;28;20020;-61
2022/08/02 12:15:30;;;;;;;1.48;1.00;;;34.50;44.80;;;;;;5048936;28;20041;-59
2022/08/02 12:20:51;;;;;;;1.50;1.00;;;34.30;44.80;;;;;;5028757;28;20105;-60
2022/08/02 12:23:17;;;;;;;0.90;0.90;;;33.80;44.60;;;;;;5048664;28;20120;-59
2022/08/02 12:25:42;;;;;;;1.17;1.10;;;33.50;45.70;;;;;;5048937;28;20413;-62
2022/08/02 12:28:21;;;;;;;1.42;1.10;;;33.10;46.30;;;;;;5048457;28;20037;-62
2022/08/02 12:30:56;;;;;;;1.75;1.08;;;32.70;46.60;;;;;;5047873;28;20496;-61
2022/08/02 12:33:23;;;;;;;1.10;1.00;;;32.40;47.60;;;;;;5048517;28;20044;-63
2022/08/02 12:35:49;;;;;;;1.70;0.93;;;32.50;47.60;;;;;;5048266;28;20033;-59
2022/08/02 12:38:15;;;;;;;3.42;1.27;;;32.50;47.20;;;;;;5048651;28;20077;-59
2022/08/02 12:40:41;;;;;;;3.28;1.10;;;32.20;47.10;;;;;;5048552;28;20033;-62
2022/08/02 12:43:15;;;;;;;1.20;1.10;;;32.20;47.40;;;;;;5048759;28;20021;-59
2022/08/02 12:45:46;;;;;;;1.60;1.08;;;32.60;47.70;;;;;;5030615;28;20025;-60
2022/08/02 12:48:12;;;;;;;2.40;1.20;;;33.00;47.60;;;;;;5048001;28;20135;-59
2022/08/02 12:50:38;;;;;;;2.75;1.00;;;33.50;46.50;;;;;;5048571;28;20163;-61
2022/08/02 12:53:12;;;;;;;1.15;1.00;;;33.70;45.30;;;;;;5048030;28;20100;-60
2022/08/02 12:55:47;;;;;;;1.73;1.13;;;33.30;45.20;;;;;;5052667;28;20064;-59
2022/08/02 12:58:13;;;;;;;1.92;1.25;;;33.10;45.40;;;;;;5050782;28;20033;-62
2022/08/02 13:00:39;;;;;;;2.53;1.27;;;32.80;46.10;;;;;;5050438;28;20071;-59
2022/08/02 13:03:06;;;;;;;1.38;0.90;;;32.80;47.20;;;;;;5052242;28;20029;-59